sensor_id;sensor_type;location;lat;lon;timestamp;P1;durP1;ratioP1;P2;durP2;ratioP2
4857;SDS011;58975;51.978;8.472;2023-07-31T00:04:43;1.70;;;1.42;;
4857;SDS011;58975;51.978;8.472;2023-07-31T00:09:39;1.50;;;1.27;;
4857;SDS011;58975;51.978;8.472;2023-07-31T00:14:36;2.17;;;1.60;;
4857;SDS011;58975;51.978;8.472;2023-07-31T00:19:33;2.72;;;1.70;;
4857;SDS011;58975;51.978;8.472;2023-07-31T00:24:29;2.47;;;1.50;;
4857;SDS011;58975;51.978;8.472;2023-07-31T00:29:26;3.30;;;1.50;;
4857;SDS011;58975;51.978;8.472;2023-07-31T00:34:22;2.33;;;2.03;;
4857;SDS011;58975;51.978;8.472;2023-07-31T00:39:19;4.85;;;1.83;;
4857;SDS011;58975;51.978;8.472;2023-07-31T00:44:15;4.22;;;1.95;;
4857;SDS011;58975;51.978;8.472;2023-07-31T00:49:12;3.72;;;2.38;;
4857;SDS011;58975;51.978;8.472;2023-07-31T00:54:08;2.30;;;1.98;;
4857;SDS011;58975;51.978;8.472;2023-07-31T00:59:05;3.20;;;2.33;;
4857;SDS011;58975;51.978;8.472;2023-07-31T01:04:02;4.30;;;2.63;;
4857;SDS011;58975;51.978;8.472;2023-07-31T01:09:16;2.70;;;2.50;;
4857;SDS011;58975;51.978;8.472;2023-07-31T01:14:36;4.05;;;2.70;;
4857;SDS011;58975;51.978;8.472;2023-07-31T01:19:32;3.72;;;2.35;;
4857;SDS011;58975;51.978;8.472;2023-07-31T01:29:38;3.03;;;1.90;;
4857;SDS011;58975;51.978;8.472;2023-07-31T01:34:45;2.60;;;1.75;;
4857;SDS011;58975;51.978;8.472;2023-07-31T01:39:42;2.53;;;1.70;;
4857;SDS011;58975;51.978;8.472;2023-07-31T01:44:39;3.00;;;2.03;;
4857;SDS011;58975;51.978;8.472;2023-07-31T01:49:35;2.95;;;1.55;;
4857;SDS011;58975;51.978;8.472;2023-07-31T01:54:32;2.83;;;2.00;;
4857;SDS011;58975;51.978;8.472;2023-07-31T01:59:29;3.33;;;1.50;;
4857;SDS011;58975;51.978;8.472;2023-07-31T02:04:26;2.00;;;1.77;;
4857;SDS011;58975;51.978;8.472;2023-07-31T02:09:22;3.72;;;1.50;;
4857;SDS011;58975;51.978;8.472;2023-07-31T02:14:19;1.88;;;1.40;;
4857;SDS011;58975;51.978;8.472;2023-07-31T02:19:15;2.72;;;1.70;;
4857;SDS011;58975;51.978;8.472;2023-07-31T02:24:11;7.00;;;1.95;;
4857;SDS011;58975;51.978;8.472;2023-07-31T02:29:08;3.80;;;1.50;;
4857;SDS011;58975;51.978;8.472;2023-07-31T02:34:05;1.67;;;1.40;;
4857;SDS011;58975;51.978;8.472;2023-07-31T02:39:01;3.83;;;1.20;;
4857;SDS011;58975;51.978;8.472;2023-07-31T02:43:58;4.20;;;1.40;;
4857;SDS011;58975;51.978;8.472;2023-07-31T02:48:54;2.92;;;1.45;;
4857;SDS011;58975;51.978;8.472;2023-07-31T02:53:50;1.92;;;1.30;;
4857;SDS011;58975;51.978;8.472;2023-07-31T02:58:47;1.65;;;1.30;;
4857;SDS011;58975;51.978;8.472;2023-07-31T03:03:43;3.28;;;1.60;;
4857;SDS011;58975;51.978;8.472;2023-07-31T03:08:40;2.30;;;1.80;;
4857;SDS011;58975;51.978;8.472;2023-07-31T03:13:36;4.45;;;3.53;;
4857;SDS011;58975;51.978;8.472;2023-07-31T03:18:33;7.88;;;5.40;;
4857;SDS011;58975;51.978;8.472;2023-07-31T03:23:29;17.95;;;7.55;;
4857;SDS011;58975;51.978;8.472;2023-07-31T03:28:26;22.17;;;10.80;;
4857;SDS011;58975;51.978;8.472;2023-07-31T03:33:23;24.38;;;12.25;;
4857;SDS011;58975;51.978;8.472;2023-07-31T03:38:19;29.35;;;12.27;;
4857;SDS011;58975;51.978;8.472;2023-07-31T03:43:16;29.75;;;13.20;;
4857;SDS011;58975;51.978;8.472;2023-07-31T03:48:13;22.17;;;13.00;;
4857;SDS011;58975;51.978;8.472;2023-07-31T03:53:10;23.85;;;12.77;;
4857;SDS011;58975;51.978;8.472;2023-07-31T03:58:07;33.25;;;13.70;;
4857;SDS011;58975;51.978;8.472;2023-07-31T04:03:03;28.20;;;13.00;;
4857;SDS011;58975;51.978;8.472;2023-07-31T04:08:00;25.55;;;13.43;;
4857;SDS011;58975;51.978;8.472;2023-07-31T04:12:56;22.40;;;12.63;;
4857;SDS011;58975;51.978;8.472;2023-07-31T04:17:52;21.85;;;12.65;;
4857;SDS011;58975;51.978;8.472;2023-07-31T04:22:49;31.40;;;12.10;;
4857;SDS011;58975;51.978;8.472;2023-07-31T04:27:45;26.80;;;11.63;;
4857;SDS011;58975;51.978;8.472;2023-07-31T04:32:42;22.42;;;11.20;;
4857;SDS011;58975;51.978;8.472;2023-07-31T04:37:39;30.45;;;11.75;;
4857;SDS011;58975;51.978;8.472;2023-07-31T04:42:35;24.80;;;11.07;;
4857;SDS011;58975;51.978;8.472;2023-07-31T04:47:31;24.38;;;10.57;;
4857;SDS011;58975;51.978;8.472;2023-07-31T04:52:28;25.63;;;12.52;;
4857;SDS011;58975;51.978;8.472;2023-07-31T04:57:24;28.48;;;10.15;;
4857;SDS011;58975;51.978;8.472;2023-07-31T05:02:21;23.80;;;9.38;;
4857;SDS011;58975;51.978;8.472;2023-07-31T05:07:18;21.55;;;8.02;;
4857;SDS011;58975;51.978;8.472;2023-07-31T05:12:14;18.98;;;8.38;;
4857;SDS011;58975;51.978;8.472;2023-07-31T05:17:11;21.60;;;6.70;;
4857;SDS011;58975;51.978;8.472;2023-07-31T05:22:07;32.95;;;8.10;;
4857;SDS011;58975;51.978;8.472;2023-07-31T05:27:04;18.58;;;7.22;;
4857;SDS011;58975;51.978;8.472;2023-07-31T05:32:00;17.77;;;6.32;;
4857;SDS011;58975;51.978;8.472;2023-07-31T05:36:57;15.00;;;6.43;;
4857;SDS011;58975;51.978;8.472;2023-07-31T05:41:54;13.85;;;6.22;;
4857;SDS011;58975;51.978;8.472;2023-07-31T05:46:50;21.10;;;5.47;;
4857;SDS011;58975;51.978;8.472;2023-07-31T05:51:46;20.80;;;6.32;;
4857;SDS011;58975;51.978;8.472;2023-07-31T05:56:43;16.13;;;6.03;;
4857;SDS011;58975;51.978;8.472;2023-07-31T06:01:39;19.80;;;6.13;;
4857;SDS011;58975;51.978;8.472;2023-07-31T06:06:36;18.15;;;6.05;;
4857;SDS011;58975;51.978;8.472;2023-07-31T06:11:33;16.27;;;6.05;;
4857;SDS011;58975;51.978;8.472;2023-07-31T06:16:29;16.13;;;7.63;;
4857;SDS011;58975;51.978;8.472;2023-07-31T06:21:26;17.60;;;6.00;;
4857;SDS011;58975;51.978;8.472;2023-07-31T06:26:22;15.43;;;6.13;;
4857;SDS011;58975;51.978;8.472;2023-07-31T06:31:19;15.65;;;5.80;;
4857;SDS011;58975;51.978;8.472;2023-07-31T06:36:19;20.00;;;5.93;;
4857;SDS011;58975;51.978;8.472;2023-07-31T06:41:15;20.05;;;6.07;;
4857;SDS011;58975;51.978;8.472;2023-07-31T06:46:12;22.52;;;6.43;;
4857;SDS011;58975;51.978;8.472;2023-07-31T06:51:08;28.52;;;6.75;;
4857;SDS011;58975;51.978;8.472;2023-07-31T06:56:05;13.98;;;5.65;;
4857;SDS011;58975;51.978;8.472;2023-07-31T07:01:01;18.73;;;6.00;;
4857;SDS011;58975;51.978;8.472;2023-07-31T07:05:58;13.05;;;5.75;;
4857;SDS011;58975;51.978;8.472;2023-07-31T07:10:54;11.52;;;5.68;;
4857;SDS011;58975;51.978;8.472;2023-07-31T07:15:51;19.20;;;5.70;;
4857;SDS011;58975;51.978;8.472;2023-07-31T07:20:51;22.35;;;5.70;;
4857;SDS011;58975;51.978;8.472;2023-07-31T07:25:48;15.90;;;5.70;;
4857;SDS011;58975;51.978;8.472;2023-07-31T07:30:45;10.63;;;4.78;;
4857;SDS011;58975;51.978;8.472;2023-07-31T07:35:47;18.77;;;6.95;;
4857;SDS011;58975;51.978;8.472;2023-07-31T07:40:44;13.07;;;5.82;;
4857;SDS011;58975;51.978;8.472;2023-07-31T07:45:41;8.37;;;3.67;;
4857;SDS011;58975;51.978;8.472;2023-07-31T07:50:38;11.15;;;5.35;;
4857;SDS011;58975;51.978;8.472;2023-07-31T07:55:35;11.25;;;4.35;;
4857;SDS011;58975;51.978;8.472;2023-07-31T08:00:31;9.43;;;4.50;;
4857;SDS011;58975;51.978;8.472;2023-07-31T08:05:28;7.65;;;4.18;;
4857;SDS011;58975;51.978;8.472;2023-07-31T08:10:28;10.00;;;5.68;;
4857;SDS011;58975;51.978;8.472;2023-07-31T08:15:24;8.02;;;4.35;;
4857;SDS011;58975;51.978;8.472;2023-07-31T08:20:21;8.57;;;4.78;;
4857;SDS011;58975;51.978;8.472;2023-07-31T08:25:18;8.13;;;3.97;;
4857;SDS011;58975;51.978;8.472;2023-07-31T08:30:14;10.27;;;4.82;;
4857;SDS011;58975;51.978;8.472;2023-07-31T08:35:11;6.97;;;3.80;;
4857;SDS011;58975;51.978;8.472;2023-07-31T08:40:08;8.55;;;4.50;;
4857;SDS011;58975;51.978;8.472;2023-07-31T08:45:04;9.43;;;4.87;;
4857;SDS011;58975;51.978;8.472;2023-07-31T08:50:02;8.95;;;4.43;;
4857;SDS011;58975;51.978;8.472;2023-07-31T08:54:59;13.18;;;6.03;;
4857;SDS011;58975;51.978;8.472;2023-07-31T08:59:55;10.45;;;4.40;;
4857;SDS011;58975;51.978;8.472;2023-07-31T09:04:53;11.30;;;5.30;;
4857;SDS011;58975;51.978;8.472;2023-07-31T09:09:50;9.82;;;5.22;;
4857;SDS011;58975;51.978;8.472;2023-07-31T09:14:47;7.57;;;4.53;;
4857;SDS011;58975;51.978;8.472;2023-07-31T09:19:43;10.93;;;4.78;;
4857;SDS011;58975;51.978;8.472;2023-07-31T09:24:40;10.50;;;4.75;;
4857;SDS011;58975;51.978;8.472;2023-07-31T09:29:36;8.30;;;4.00;;
4857;SDS011;58975;51.978;8.472;2023-07-31T09:34:39;7.10;;;5.40;;
4857;SDS011;58975;51.978;8.472;2023-07-31T09:39:45;8.23;;;3.72;;
4857;SDS011;58975;51.978;8.472;2023-07-31T09:44:43;6.35;;;4.05;;
4857;SDS011;58975;51.978;8.472;2023-07-31T09:49:39;9.30;;;3.63;;
4857;SDS011;58975;51.978;8.472;2023-07-31T09:54:42;5.88;;;3.30;;
4857;SDS011;58975;51.978;8.472;2023-07-31T09:59:38;6.15;;;3.70;;
4857;SDS011;58975;51.978;8.472;2023-07-31T10:04:35;8.67;;;3.70;;
4857;SDS011;58975;51.978;8.472;2023-07-31T10:09:33;10.25;;;4.82;;
4857;SDS011;58975;51.978;8.472;2023-07-31T10:14:30;7.15;;;3.53;;
4857;SDS011;58975;51.978;8.472;2023-07-31T10:19:27;5.00;;;3.20;;
4857;SDS011;58975;51.978;8.472;2023-07-31T10:24:26;6.20;;;3.38;;
4857;SDS011;58975;51.978;8.472;2023-07-31T10:34:21;4.65;;;2.10;;
4857;SDS011;58975;51.978;8.472;2023-07-31T10:39:33;4.20;;;2.05;;
4857;SDS011;58975;51.978;8.472;2023-07-31T10:44:32;5.53;;;2.20;;
4857;SDS011;58975;51.978;8.472;2023-07-31T10:49:30;4.00;;;2.55;;
4857;SDS011;58975;51.978;8.472;2023-07-31T10:54:28;2.03;;;1.60;;
4857;SDS011;58975;51.978;8.472;2023-07-31T10:59:26;3.20;;;1.70;;
4857;SDS011;58975;51.978;8.472;2023-07-31T11:04:24;3.92;;;1.73;;
4857;SDS011;58975;51.978;8.472;2023-07-31T11:09:24;2.13;;;1.90;;
4857;SDS011;58975;51.978;8.472;2023-07-31T11:14:23;3.17;;;2.10;;
4857;SDS011;58975;51.978;8.472;2023-07-31T11:19:23;3.35;;;1.90;;
4857;SDS011;58975;51.978;8.472;2023-07-31T11:24:20;2.85;;;1.65;;
4857;SDS011;58975;51.978;8.472;2023-07-31T11:29:17;2.15;;;1.52;;
4857;SDS011;58975;51.978;8.472;2023-07-31T11:34:15;4.28;;;1.60;;
4857;SDS011;58975;51.978;8.472;2023-07-31T11:39:13;2.90;;;2.15;;
4857;SDS011;58975;51.978;8.472;2023-07-31T11:44:09;12.68;;;2.60;;
4857;SDS011;58975;51.978;8.472;2023-07-31T11:49:23;3.88;;;1.90;;
4857;SDS011;58975;51.978;8.472;2023-07-31T11:54:19;1.88;;;1.60;;
4857;SDS011;58975;51.978;8.472;2023-07-31T11:59:16;4.70;;;1.75;;
4857;SDS011;58975;51.978;8.472;2023-07-31T12:04:13;2.30;;;1.92;;
4857;SDS011;58975;51.978;8.472;2023-07-31T12:09:10;1.85;;;1.52;;
4857;SDS011;58975;51.978;8.472;2023-07-31T12:14:06;2.40;;;1.65;;
4857;SDS011;58975;51.978;8.472;2023-07-31T12:19:03;1.70;;;1.40;;
4857;SDS011;58975;51.978;8.472;2023-07-31T12:23:59;2.85;;;1.30;;
4857;SDS011;58975;51.978;8.472;2023-07-31T12:28:56;2.25;;;1.45;;
4857;SDS011;58975;51.978;8.472;2023-07-31T12:33:53;1.70;;;1.25;;
4857;SDS011;58975;51.978;8.472;2023-07-31T12:38:52;3.78;;;1.40;;
4857;SDS011;58975;51.978;8.472;2023-07-31T12:43:49;2.70;;;1.38;;
4857;SDS011;58975;51.978;8.472;2023-07-31T12:48:45;3.30;;;1.60;;
4857;SDS011;58975;51.978;8.472;2023-07-31T12:53:42;3.38;;;2.20;;
4857;SDS011;58975;51.978;8.472;2023-07-31T12:58:38;4.78;;;2.88;;
4857;SDS011;58975;51.978;8.472;2023-07-31T13:03:35;3.72;;;3.08;;
4857;SDS011;58975;51.978;8.472;2023-07-31T13:08:31;5.55;;;3.58;;
4857;SDS011;58975;51.978;8.472;2023-07-31T13:13:28;5.43;;;3.65;;
4857;SDS011;58975;51.978;8.472;2023-07-31T13:18:28;3.80;;;3.38;;
4857;SDS011;58975;51.978;8.472;2023-07-31T13:23:24;4.82;;;4.00;;
4857;SDS011;58975;51.978;8.472;2023-07-31T13:28:21;5.43;;;2.75;;
4857;SDS011;58975;51.978;8.472;2023-07-31T13:33:17;3.03;;;2.55;;
4857;SDS011;58975;51.978;8.472;2023-07-31T13:38:32;3.00;;;2.08;;
4857;SDS011;58975;51.978;8.472;2023-07-31T13:43:29;5.07;;;2.15;;
4857;SDS011;58975;51.978;8.472;2023-07-31T13:48:25;3.75;;;2.40;;
4857;SDS011;58975;51.978;8.472;2023-07-31T13:53:22;3.55;;;2.17;;
4857;SDS011;58975;51.978;8.472;2023-07-31T13:58:18;4.03;;;1.95;;
4857;SDS011;58975;51.978;8.472;2023-07-31T14:03:14;2.63;;;2.22;;
4857;SDS011;58975;51.978;8.472;2023-07-31T14:08:11;3.00;;;2.05;;
4857;SDS011;58975;51.978;8.472;2023-07-31T14:13:07;3.50;;;2.58;;
4857;SDS011;58975;51.978;8.472;2023-07-31T14:18:04;5.18;;;2.22;;
4857;SDS011;58975;51.978;8.472;2023-07-31T14:23:03;2.47;;;2.20;;
4857;SDS011;58975;51.978;8.472;2023-07-31T14:28:00;3.80;;;2.35;;
4857;SDS011;58975;51.978;8.472;2023-07-31T14:32:57;5.60;;;2.50;;
4857;SDS011;58975;51.978;8.472;2023-07-31T14:37:53;3.70;;;2.78;;
4857;SDS011;58975;51.978;8.472;2023-07-31T14:42:49;3.05;;;2.33;;
4857;SDS011;58975;51.978;8.472;2023-07-31T14:47:46;2.33;;;1.92;;
4857;SDS011;58975;51.978;8.472;2023-07-31T14:52:43;3.50;;;1.50;;
4857;SDS011;58975;51.978;8.472;2023-07-31T14:57:39;4.53;;;2.38;;
4857;SDS011;58975;51.978;8.472;2023-07-31T15:02:36;3.97;;;1.85;;
4857;SDS011;58975;51.978;8.472;2023-07-31T15:12:30;3.17;;;1.40;;
4857;SDS011;58975;51.978;8.472;2023-07-31T15:17:26;2.00;;;1.80;;
4857;SDS011;58975;51.978;8.472;2023-07-31T15:22:25;3.60;;;2.03;;
4857;SDS011;58975;51.978;8.472;2023-07-31T15:27:22;4.88;;;2.38;;
4857;SDS011;58975;51.978;8.472;2023-07-31T15:32:18;2.42;;;1.83;;
4857;SDS011;58975;51.978;8.472;2023-07-31T15:37:15;4.72;;;1.73;;
4857;SDS011;58975;51.978;8.472;2023-07-31T15:42:13;3.00;;;2.10;;
4857;SDS011;58975;51.978;8.472;2023-07-31T15:47:10;2.38;;;1.90;;
4857;SDS011;58975;51.978;8.472;2023-07-31T15:52:06;5.07;;;1.98;;
4857;SDS011;58975;51.978;8.472;2023-07-31T15:57:03;2.72;;;1.75;;
4857;SDS011;58975;51.978;8.472;2023-07-31T16:02:00;3.88;;;2.42;;
4857;SDS011;58975;51.978;8.472;2023-07-31T16:06:57;3.92;;;2.33;;
4857;SDS011;58975;51.978;8.472;2023-07-31T16:11:53;2.42;;;1.63;;
4857;SDS011;58975;51.978;8.472;2023-07-31T16:16:50;2.05;;;1.75;;
4857;SDS011;58975;51.978;8.472;2023-07-31T16:21:49;3.03;;;2.22;;
4857;SDS011;58975;51.978;8.472;2023-07-31T16:26:45;2.83;;;1.75;;
4857;SDS011;58975;51.978;8.472;2023-07-31T16:31:41;4.60;;;1.80;;
4857;SDS011;58975;51.978;8.472;2023-07-31T16:36:52;3.85;;;1.90;;
4857;SDS011;58975;51.978;8.472;2023-07-31T16:41:51;3.47;;;2.03;;
4857;SDS011;58975;51.978;8.472;2023-07-31T16:46:48;4.13;;;2.00;;
4857;SDS011;58975;51.978;8.472;2023-07-31T16:51:45;5.28;;;2.30;;
4857;SDS011;58975;51.978;8.472;2023-07-31T16:56:41;2.90;;;2.30;;
4857;SDS011;58975;51.978;8.472;2023-07-31T17:01:54;3.15;;;2.20;;
4857;SDS011;58975;51.978;8.472;2023-07-31T17:06:55;4.10;;;2.78;;
4857;SDS011;58975;51.978;8.472;2023-07-31T17:11:51;7.10;;;2.35;;
4857;SDS011;58975;51.978;8.472;2023-07-31T17:16:48;7.20;;;3.08;;
4857;SDS011;58975;51.978;8.472;2023-07-31T17:21:44;3.95;;;2.88;;
4857;SDS011;58975;51.978;8.472;2023-07-31T17:26:40;7.68;;;3.40;;
4857;SDS011;58975;51.978;8.472;2023-07-31T17:31:37;6.10;;;3.97;;
4857;SDS011;58975;51.978;8.472;2023-07-31T17:36:35;6.93;;;4.03;;
4857;SDS011;58975;51.978;8.472;2023-07-31T17:46:30;5.37;;;3.27;;
4857;SDS011;58975;51.978;8.472;2023-07-31T17:51:26;6.20;;;3.40;;
4857;SDS011;58975;51.978;8.472;2023-07-31T17:56:23;8.68;;;4.10;;
4857;SDS011;58975;51.978;8.472;2023-07-31T18:01:19;4.85;;;3.10;;
4857;SDS011;58975;51.978;8.472;2023-07-31T18:06:16;6.78;;;3.50;;
4857;SDS011;58975;51.978;8.472;2023-07-31T18:11:12;7.22;;;3.13;;
4857;SDS011;58975;51.978;8.472;2023-07-31T18:16:09;5.05;;;3.17;;
4857;SDS011;58975;51.978;8.472;2023-07-31T18:21:06;5.43;;;3.47;;
4857;SDS011;58975;51.978;8.472;2023-07-31T18:26:02;3.92;;;3.45;;
4857;SDS011;58975;51.978;8.472;2023-07-31T18:30:59;8.20;;;3.60;;
4857;SDS011;58975;51.978;8.472;2023-07-31T18:35:57;8.02;;;4.22;;
4857;SDS011;58975;51.978;8.472;2023-07-31T18:40:54;8.63;;;4.00;;
4857;SDS011;58975;51.978;8.472;2023-07-31T18:45:50;7.75;;;4.90;;
4857;SDS011;58975;51.978;8.472;2023-07-31T18:50:47;6.00;;;3.78;;
4857;SDS011;58975;51.978;8.472;2023-07-31T18:55:43;5.78;;;3.78;;
4857;SDS011;58975;51.978;8.472;2023-07-31T19:00:40;10.20;;;6.00;;
4857;SDS011;58975;51.978;8.472;2023-07-31T19:05:38;12.30;;;6.55;;
4857;SDS011;58975;51.978;8.472;2023-07-31T19:10:35;14.82;;;7.68;;
4857;SDS011;58975;51.978;8.472;2023-07-31T19:15:32;11.37;;;6.43;;
4857;SDS011;58975;51.978;8.472;2023-07-31T19:20:30;9.40;;;5.72;;
4857;SDS011;58975;51.978;8.472;2023-07-31T19:25:27;7.30;;;4.05;;
4857;SDS011;58975;51.978;8.472;2023-07-31T19:30:24;8.93;;;3.88;;
4857;SDS011;58975;51.978;8.472;2023-07-31T19:35:22;5.93;;;2.95;;
4857;SDS011;58975;51.978;8.472;2023-07-31T19:40:21;3.35;;;2.90;;
4857;SDS011;58975;51.978;8.472;2023-07-31T19:45:17;5.80;;;2.83;;
4857;SDS011;58975;51.978;8.472;2023-07-31T19:50:14;4.13;;;2.63;;
4857;SDS011;58975;51.978;8.472;2023-07-31T19:55:11;3.78;;;2.83;;
4857;SDS011;58975;51.978;8.472;2023-07-31T20:00:07;3.13;;;2.25;;
4857;SDS011;58975;51.978;8.472;2023-07-31T20:05:04;4.88;;;2.72;;
4857;SDS011;58975;51.978;8.472;2023-07-31T20:10:01;3.23;;;2.33;;
4857;SDS011;58975;51.978;8.472;2023-07-31T20:14:59;4.38;;;2.30;;
4857;SDS011;58975;51.978;8.472;2023-07-31T20:19:56;2.45;;;2.08;;
4857;SDS011;58975;51.978;8.472;2023-07-31T20:24:53;5.60;;;2.28;;
4857;SDS011;58975;51.978;8.472;2023-07-31T20:29:49;4.80;;;1.98;;
4857;SDS011;58975;51.978;8.472;2023-07-31T20:34:46;3.72;;;2.75;;
4857;SDS011;58975;51.978;8.472;2023-07-31T20:39:42;3.00;;;1.90;;
4857;SDS011;58975;51.978;8.472;2023-07-31T20:44:39;2.60;;;1.88;;
4857;SDS011;58975;51.978;8.472;2023-07-31T20:49:35;2.97;;;2.53;;
4857;SDS011;58975;51.978;8.472;2023-07-31T20:54:31;3.97;;;1.70;;
4857;SDS011;58975;51.978;8.472;2023-07-31T20:59:28;1.55;;;1.30;;
4857;SDS011;58975;51.978;8.472;2023-07-31T21:04:24;3.40;;;1.27;;
4857;SDS011;58975;51.978;8.472;2023-07-31T21:09:21;2.33;;;1.50;;
4857;SDS011;58975;51.978;8.472;2023-07-31T21:14:17;2.83;;;1.52;;
4857;SDS011;58975;51.978;8.472;2023-07-31T21:19:14;2.50;;;1.48;;
4857;SDS011;58975;51.978;8.472;2023-07-31T21:24:10;1.17;;;0.98;;
4857;SDS011;58975;51.978;8.472;2023-07-31T21:29:07;4.20;;;1.25;;
4857;SDS011;58975;51.978;8.472;2023-07-31T21:34:03;2.28;;;1.40;;
4857;SDS011;58975;51.978;8.472;2023-07-31T21:39:00;2.03;;;1.27;;
4857;SDS011;58975;51.978;8.472;2023-07-31T21:43:57;2.22;;;1.30;;
4857;SDS011;58975;51.978;8.472;2023-07-31T21:48:53;5.32;;;2.42;;
4857;SDS011;58975;51.978;8.472;2023-07-31T21:53:49;8.02;;;3.08;;
4857;SDS011;58975;51.978;8.472;2023-07-31T21:58:46;3.78;;;2.50;;
4857;SDS011;58975;51.978;8.472;2023-07-31T22:03:42;3.90;;;2.15;;
4857;SDS011;58975;51.978;8.472;2023-07-31T22:08:39;4.20;;;1.75;;
4857;SDS011;58975;51.978;8.472;2023-07-31T22:13:35;2.33;;;1.27;;
4857;SDS011;58975;51.978;8.472;2023-07-31T22:18:32;2.75;;;1.35;;
4857;SDS011;58975;51.978;8.472;2023-07-31T22:23:28;2.17;;;1.65;;
4857;SDS011;58975;51.978;8.472;2023-07-31T22:28:25;2.25;;;1.77;;
4857;SDS011;58975;51.978;8.472;2023-07-31T22:33:21;3.33;;;1.10;;
4857;SDS011;58975;51.978;8.472;2023-07-31T22:38:19;4.85;;;1.08;;
4857;SDS011;58975;51.978;8.472;2023-07-31T22:43:16;2.22;;;1.52;;
4857;SDS011;58975;51.978;8.472;2023-07-31T22:48:12;1.83;;;1.60;;
4857;SDS011;58975;51.978;8.472;2023-07-31T22:53:09;2.20;;;1.83;;
4857;SDS011;58975;51.978;8.472;2023-07-31T22:58:06;4.05;;;2.00;;
4857;SDS011;58975;51.978;8.472;2023-07-31T23:03:02;6.17;;;2.73;;
4857;SDS011;58975;51.978;8.472;2023-07-31T23:07:59;2.60;;;2.40;;
4857;SDS011;58975;51.978;8.472;2023-07-31T23:12:55;5.07;;;3.25;;
4857;SDS011;58975;51.978;8.472;2023-07-31T23:17:52;6.57;;;3.80;;
4857;SDS011;58975;51.978;8.472;2023-07-31T23:22:48;6.88;;;4.35;;
4857;SDS011;58975;51.978;8.472;2023-07-31T23:27:45;7.85;;;4.07;;
4857;SDS011;58975;51.978;8.472;2023-07-31T23:32:41;6.55;;;3.95;;
4857;SDS011;58975;51.978;8.472;2023-07-31T23:37:38;5.88;;;2.40;;
4857;SDS011;58975;51.978;8.472;2023-07-31T23:42:34;2.65;;;1.35;;
4857;SDS011;58975;51.978;8.472;2023-07-31T23:47:31;2.50;;;0.90;;
4857;SDS011;58975;51.978;8.472;2023-07-31T23:52:27;1.27;;;1.10;;
4857;SDS011;58975;51.978;8.472;2023-07-31T23:57:24;3.23;;;1.17;;
